Ellsworth, MI (49729)

11:18 PM EDT on March 29, 2015 (GMT -0400)
2.1 MI NNW of East Jordan(West Field) | | Change Station
CLOSE
Current Station
Personal Weather Station
Location: East Jordan, MI
Elevation: 640 ft
Nearby Weather Stations

Elev 640 ft 45.19 °N, 85.15 °W | Updated 3 seconds ago

Ice Pellets
Ice Pellets
34.6 °F
Feels Like 30 °F
N
5.0
Wind Variable Wind from WNW
Gusts 11.0 mph

Today
High -- | Low -- °F
--% Chance of Precip.
Yesterday
High -- | Low -- °F
Precip. -- in
7:27 AM 8:04 PM
Waxing Gibbous, 76% visible
Pressure 29.62 in
Visibility 10.0 miles
Clouds Overcast 1400 ft
Windchill 30 °F
Dew Point 34 °F
Humidity 98%
Rainfall 0.07 in
Snow Depth Not available.
UV 0 out of 12
Pollen 2.20 out of 12
Air Quality Not available.
Flu Activity Not available.
METAR KACB 300315Z AUTO 29008G14KT 250V310 10SM UP OVC014 03/01 A2962 RMK AO2 T00250005

More Conditions Fewer Conditions

Pressure 29.62 in
Visibility 10.0 miles
Clouds Overcast 1400 ft
Windchill 30 °F
Dew Point 34 °F
Humidity 98%
Rainfall 0.07 in
Snow Depth Not available.
UV 0 out of 12
Pollen 2.20 out of 12
Air Quality Not available.
Flu Activity Not available.
METAR KACB 300315Z AUTO 29008G14KT 250V310 10SM UP OVC014 03/01 A2962 RMK AO2 T00250005

More Conditions Fewer Conditions

Nowcast | as of 11:00 PM EDT on March 29, 2015

At 12 am...periods of snow. Temperature 33. West winds 17 mph. At 2 am...periods of snow. Temperature 32. Northwest winds 18 mph with gusts to 30 mph. At 4 am...periods of snow. Temperature 31. West winds 17 mph. At 6 am...cloudy. Scattered snow showers. Temperature 31. West winds 16 mph.

×

10-Day Weather Forecast

Almanac

Astronomy

Mar. 29, 2015 Rise Set
Actual Time
Civil Twilight
Nautical Twilight
Astronomical Twilight
Moon
Length of Visible Light
Length of Day
Tomorrow will be .
, % of the Moon is Illuminated

Today's Extremes

State Highs State Lows

Community

WunderPhotos

Upload Photos

1,809,420 photos uploaded!

WunderBlogs® & News

Nearby

Air Quality

  Air Quality AQ Index Pollutant
Not available.

Snow Depth

Station Depth Elevation

Earthquake Activity

City Distance Mag. Time & Date
Minimum magnitude displayed is 2.5.

Coastal Water Temperatures

Place Temperature

Stations

Nearby Weather Stations

Station Location Temp. Windchill Dew Point Humidity Wind Precip. Elev Updated Type